Time;durP1;ratioP1;P1;durP2;ratioP2;P2;SDS_P1;SDS_P2;PMS_P1;PMS_P2;Temp;Humidity;BMP_temperature;BMP_pressure;BME280_temperature;BME280_humidity;BME280_pressure;Samples;Min_cycle;Max_cycle;Signal;HPM_P1;HPM_P2
2024/04/02 00:01:50;;;;;;;4.30;0.77;;;;;;;;;;6217745;23;20008;-95
2024/04/02 00:04:15;;;;;;;3.97;0.80;;;;;;;;;;6217075;23;20035;-94
2024/04/02 00:06:41;;;;;;;4.30;0.80;;;;;;;;;;6216701;23;20257;-94
2024/04/02 00:09:06;;;;;;;7.32;1.33;;;;;;;;;;6217525;23;20478;-94
2024/04/02 00:11:31;;;;;;;5.82;1.00;;;;;;;;;;6190085;23;20009;-95
2024/04/02 00:13:57;;;;;;;4.22;0.95;;;;;;;;;;6215644;23;19997;-94
2024/04/02 00:16:22;;;;;;;7.72;1.83;;;;;;;;;;6190280;23;20438;-95
2024/04/02 00:18:47;;;;;;;4.77;0.90;;;;;;;;;;6214782;23;20417;-94
2024/04/02 00:21:13;;;;;;;2.80;0.80;;;;;;;;;;6215648;23;20346;-94
2024/04/02 00:23:40;;;;;;;2.95;0.57;;;;;;;;;;6215578;23;20588;-95
2024/04/02 00:26:06;;;;;;;3.42;0.73;;;;;;;;;;6215307;23;20423;-94
2024/04/02 00:28:31;;;;;;;1.83;0.63;;;;;;;;;;6215499;23;20039;-94
2024/04/02 00:31:00;;;;;;;5.15;0.85;;;;;;;;;;6215051;23;20238;-94
2024/04/02 00:33:26;;;;;;;4.20;1.23;;;;;;;;;;6214948;23;20012;-95
2024/04/02 00:36:04;;;;;;;7.75;0.98;;;;;;;;;;6215688;23;20419;-94
2024/04/02 00:38:30;;;;;;;7.22;0.70;;;;;;;;;;6216333;23;19997;-95
2024/04/02 00:40:55;;;;;;;5.03;0.88;;;;;;;;;;6216699;23;19996;-95
2024/04/02 00:43:20;;;;;;;6.18;2.90;;;;;;;;;;6215543;23;20088;-95
2024/04/02 00:45:46;;;;;;;9.90;2.05;;;;;;;;;;6215647;23;20000;-94
2024/04/02 00:48:11;;;;;;;8.65;2.38;;;;;;;;;;6215086;23;19993;-95
2024/04/02 00:50:37;;;;;;;3.42;0.80;;;;;;;;;;6215062;23;20005;-95
2024/04/02 00:53:02;;;;;;;4.90;0.80;;;;;;;;;;6216401;23;20004;-96
2024/04/02 00:55:28;;;;;;;4.35;1.15;;;;;;;;;;6215898;23;20198;-95
2024/04/02 00:57:53;;;;;;;4.80;0.80;;;;;;;;;;6215394;23;20051;-95
2024/04/02 01:00:18;;;;;;;5.03;0.98;;;;;;;;;;6214286;23;20000;-95
2024/04/02 01:02:43;;;;;;;3.30;0.60;;;;;;;;;;6215819;23;20439;-95
2024/04/02 01:05:09;;;;;;;2.92;0.80;;;;;;;;;;6215730;23;20225;-94
2024/04/02 01:07:35;;;;;;;5.38;0.85;;;;;;;;;;6214815;23;20130;-94
2024/04/02 01:10:00;;;;;;;6.85;1.10;;;;;;;;;;6214838;23;20030;-96
2024/04/02 01:12:26;;;;;;;9.13;1.25;;;;;;;;;;6214769;23;20019;-94
2024/04/02 01:14:51;;;;;;;5.50;0.88;;;;;;;;;;6215038;23;20423;-94
2024/04/02 01:17:17;;;;;;;4.13;0.90;;;;;;;;;;6215247;23;20007;-95
2024/04/02 01:19:42;;;;;;;3.78;0.68;;;;;;;;;;6214878;23;20225;-94
2024/04/02 01:22:07;;;;;;;3.05;0.68;;;;;;;;;;6214788;23;20004;-94
2024/04/02 01:24:32;;;;;;;4.63;0.93;;;;;;;;;;6214841;23;20455;-94
2024/04/02 01:26:59;;;;;;;6.25;0.70;;;;;;;;;;6214530;23;20724;-95
2024/04/02 01:29:24;;;;;;;3.97;0.90;;;;;;;;;;6214501;23;20386;-94
2024/04/02 01:31:51;;;;;;;3.93;0.90;;;;;;;;;;6214457;23;20039;-94
2024/04/02 01:34:18;;;;;;;4.03;1.50;;;;;;;;;;6214583;23;20235;-94
2024/04/02 01:36:43;;;;;;;1.80;0.65;;;;;;;;;;6214731;23;20230;-93
2024/04/02 01:39:08;;;;;;;3.43;0.73;;;;;;;;;;6213755;23;20037;-94
2024/04/02 01:41:34;;;;;;;4.03;0.70;;;;;;;;;;6215005;23;20284;-94
2024/04/02 01:43:59;;;;;;;5.93;0.88;;;;;;;;;;6214936;23;20277;-95
2024/04/02 01:46:24;;;;;;;4.45;0.60;;;;;;;;;;6214556;23;20005;-94
2024/04/02 01:48:49;;;;;;;4.17;0.70;;;;;;;;;;6214843;23;20079;-94
2024/04/02 01:51:15;;;;;;;4.60;1.10;;;;;;;;;;6214329;23;20291;-93
2024/04/02 01:53:40;;;;;;;2.83;0.70;;;;;;;;;;6214635;23;20132;-94
2024/04/02 01:56:05;;;;;;;3.10;0.63;;;;;;;;;;6214538;23;20300;-94
2024/04/02 01:58:30;;;;;;;2.00;0.80;;;;;;;;;;6214585;23;19999;-93
2024/04/02 02:00:55;;;;;;;2.03;0.40;;;;;;;;;;6214943;23;20001;-94
2024/04/02 02:03:21;;;;;;;5.00;0.77;;;;;;;;;;6214634;23;20305;-93
2024/04/02 02:05:46;;;;;;;2.27;0.77;;;;;;;;;;6214572;23;20305;-93
2024/04/02 02:08:11;;;;;;;1.88;0.70;;;;;;;;;;6214334;23;20253;-93
2024/04/02 02:10:37;;;;;;;2.83;0.70;;;;;;;;;;6215876;23;20000;-93
2024/04/02 02:13:04;;;;;;;5.35;0.90;;;;;;;;;;6214382;23;20250;-93
2024/04/02 02:15:30;;;;;;;2.45;0.95;;;;;;;;;;6188314;23;20087;-94
2024/04/02 02:17:55;;;;;;;3.63;0.77;;;;;;;;;;6214035;23;20004;-93
2024/04/02 02:20:20;;;;;;;3.20;1.20;;;;;;;;;;6213855;23;20051;-94
2024/04/02 02:22:46;;;;;;;2.28;1.08;;;;;;;;;;6214600;23;20292;-92
2024/04/02 02:25:11;;;;;;;3.90;1.00;;;;;;;;;;6215954;23;20032;-94
2024/04/02 02:27:38;;;;;;;5.38;0.95;;;;;;;;;;6189168;23;20008;-93
2024/04/02 02:30:04;;;;;;;2.75;1.13;;;;;;;;;;6214022;23;20426;-93
2024/04/02 02:32:30;;;;;;;4.38;0.88;;;;;;;;;;6214140;23;20673;-94
2024/04/02 02:34:55;;;;;;;1.52;0.50;;;;;;;;;;6215384;23;20080;-94
2024/04/02 02:37:20;;;;;;;0.67;0.53;;;;;;;;;;6215809;23;20343;-94
2024/04/02 02:39:45;;;;;;;2.73;1.00;;;;;;;;;;6214188;23;20549;-94
2024/04/02 02:42:11;;;;;;;4.10;1.20;;;;;;;;;;6213670;23;20554;-95
2024/04/02 02:44:36;;;;;;;2.90;1.00;;;;;;;;;;6189452;23;20078;-93
2024/04/02 02:47:01;;;;;;;3.60;0.80;;;;;;;;;;6214285;23;20008;-93
2024/04/02 02:49:27;;;;;;;3.10;1.27;;;;;;;;;;6214458;23;20005;-94
2024/04/02 02:51:52;;;;;;;1.63;0.90;;;;;;;;;;6213047;23;20039;-92
2024/04/02 02:54:17;;;;;;;4.10;1.20;;;;;;;;;;6215298;23;20214;-94
2024/04/02 02:56:42;;;;;;;3.00;0.90;;;;;;;;;;6213814;23;20004;-94
2024/04/02 02:59:08;;;;;;;0.87;0.70;;;;;;;;;;6215403;23;20019;-93
2024/04/02 03:01:33;;;;;;;4.50;1.00;;;;;;;;;;6214940;23;20264;-94
2024/04/02 03:03:58;;;;;;;1.73;1.00;;;;;;;;;;6215282;23;20214;-93
2024/04/02 03:06:23;;;;;;;2.38;1.02;;;;;;;;;;6188587;23;20317;-93
2024/04/02 03:08:49;;;;;;;3.15;1.00;;;;;;;;;;6213667;23;20004;-93
2024/04/02 03:11:14;;;;;;;3.13;1.07;;;;;;;;;;6213600;23;20000;-94
2024/04/02 03:13:39;;;;;;;1.90;0.90;;;;;;;;;;6213788;23;20226;-93
2024/04/02 03:16:05;;;;;;;4.05;1.35;;;;;;;;;;6213664;23;20222;-92
2024/04/02 03:18:30;;;;;;;2.28;0.82;;;;;;;;;;6213222;23;20130;-93
2024/04/02 03:20:56;;;;;;;1.90;1.10;;;;;;;;;;6213290;23;20047;-94
2024/04/02 03:23:21;;;;;;;3.45;1.27;;;;;;;;;;6213854;23;20012;-94
2024/04/02 03:25:53;;;;;;;5.17;1.00;;;;;;;;;;6213786;23;20019;-94
2024/04/02 03:28:19;;;;;;;1.40;0.98;;;;;;;;;;6213418;23;20226;-93
2024/04/02 03:30:44;;;;;;;3.47;1.20;;;;;;;;;;6214707;23;20059;-94
2024/04/02 03:33:10;;;;;;;3.42;1.40;;;;;;;;;;6214988;23;20009;-93
2024/04/02 03:35:35;;;;;;;2.38;1.33;;;;;;;;;;6215362;23;20004;-94
2024/04/02 03:38:00;;;;;;;2.15;1.02;;;;;;;;;;6213275;23;20031;-93
2024/04/02 03:40:26;;;;;;;3.17;1.05;;;;;;;;;;6213441;23;19999;-93
2024/04/02 03:42:52;;;;;;;3.90;1.20;;;;;;;;;;6215186;23;20001;-92
2024/04/02 03:45:17;;;;;;;4.13;1.25;;;;;;;;;;6214015;23;20046;-93
2024/04/02 03:47:42;;;;;;;2.77;1.30;;;;;;;;;;6215452;23;20008;-93
2024/04/02 03:50:07;;;;;;;3.90;1.13;;;;;;;;;;6215608;23;20214;-94
2024/04/02 03:52:32;;;;;;;3.13;1.40;;;;;;;;;;6215231;23;20257;-93
2024/04/02 03:54:58;;;;;;;1.00;0.90;;;;;;;;;;6215580;23;20072;-93
2024/04/02 03:57:23;;;;;;;2.97;0.97;;;;;;;;;;6215060;23;20269;-93
2024/04/02 03:59:48;;;;;;;1.83;1.17;;;;;;;;;;6215427;23;20229;-93
2024/04/02 04:02:14;;;;;;;1.40;1.30;;;;;;;;;;6215540;23;20233;-93
2024/04/02 04:04:39;;;;;;;3.03;1.20;;;;;;;;;;6215159;23;20225;-92
2024/04/02 04:07:04;;;;;;;4.50;1.30;;;;;;;;;;6214265;23;20011;-94
2024/04/02 04:09:29;;;;;;;3.43;1.23;;;;;;;;;;6215506;23;20301;-94
2024/04/02 04:11:54;;;;;;;2.67;1.40;;;;;;;;;;6216800;23;20350;-94
2024/04/02 04:14:20;;;;;;;2.95;1.13;;;;;;;;;;6215417;23;20322;-94
2024/04/02 04:16:45;;;;;;;4.30;1.55;;;;;;;;;;6215180;23;20008;-94
2024/04/02 04:19:10;;;;;;;4.40;1.40;;;;;;;;;;6216881;23;20004;-94
2024/04/02 04:21:36;;;;;;;4.90;1.33;;;;;;;;;;6217265;23;19989;-93
2024/04/02 04:24:01;;;;;;;3.92;1.10;;;;;;;;;;6215858;23;20260;-94
2024/04/02 04:26:26;;;;;;;2.17;0.80;;;;;;;;;;6215519;23;20450;-94
2024/04/02 04:28:52;;;;;;;3.50;1.10;;;;;;;;;;6216711;23;20399;-94
2024/04/02 04:31:18;;;;;;;3.17;1.08;;;;;;;;;;6215189;23;20008;-93
2024/04/02 04:33:43;;;;;;;4.60;0.90;;;;;;;;;;6215502;23;20328;-94
2024/04/02 04:36:08;;;;;;;2.83;1.00;;;;;;;;;;6215334;23;20004;-94
2024/04/02 04:38:34;;;;;;;4.73;1.00;;;;;;;;;;6214655;23;20241;-94
2024/04/02 04:40:59;;;;;;;3.10;1.35;;;;;;;;;;6214639;23;20218;-94
2024/04/02 04:43:24;;;;;;;2.37;1.20;;;;;;;;;;6188949;23;20420;-94
2024/04/02 04:45:53;;;;;;;3.33;1.20;;;;;;;;;;6214529;23;20673;-94
2024/04/02 04:48:18;;;;;;;5.78;1.17;;;;;;;;;;6187973;23;20007;-93
2024/04/02 04:50:54;;;;;;;2.50;1.15;;;;;;;;;;6213828;23;19997;-94
2024/04/02 04:53:19;;;;;;;2.00;1.08;;;;;;;;;;6214060;23;20019;-94
2024/04/02 04:55:44;;;;;;;4.60;0.90;;;;;;;;;;6214143;23;20332;-93
2024/04/02 04:58:09;;;;;;;2.40;0.73;;;;;;;;;;6215501;23;20519;-95
2024/04/02 05:00:34;;;;;;;2.50;1.10;;;;;;;;;;6189340;23;20548;-93
2024/04/02 05:03:00;;;;;;;4.20;1.15;;;;;;;;;;6215685;23;20614;-95
2024/04/02 05:05:25;;;;;;;2.33;1.02;;;;;;;;;;6214336;23;20005;-93
2024/04/02 05:07:57;;;;;;;1.87;0.87;;;;;;;;;;6214101;23;20020;-93
2024/04/02 05:10:22;;;;;;;;;;;;;;;;;;6216175;23;20293;-94
2024/04/02 05:12:47;;;;;;;2.08;0.70;;;;;;;;;;6189087;23;19943;-94
2024/04/02 05:15:12;;;;;;;6.40;1.10;;;;;;;;;;6213960;23;20581;-95
2024/04/02 05:17:37;;;;;;;0.95;0.60;;;;;;;;;;6213864;23;20008;-94
2024/04/02 05:20:04;;;;;;;1.50;0.80;;;;;;;;;;6214271;23;19993;-94
2024/04/02 05:22:29;;;;;;;3.90;0.88;;;;;;;;;;6213889;23;20280;-93
2024/04/02 05:24:54;;;;;;;3.63;0.93;;;;;;;;;;6213795;23;19993;-94
2024/04/02 05:27:19;;;;;;;2.50;0.77;;;;;;;;;;6213855;23;20051;-93
2024/04/02 05:29:46;;;;;;;2.83;1.00;;;;;;;;;;6213576;23;20360;-93
2024/04/02 05:32:11;;;;;;;3.05;1.00;;;;;;;;;;6213796;23;20294;-92
2024/04/02 05:34:37;;;;;;;3.97;1.20;;;;;;;;;;6215624;23;20486;-93
2024/04/02 05:37:03;;;;;;;2.50;1.13;;;;;;;;;;6215544;23;20419;-93
2024/04/02 05:39:28;;;;;;;3.22;1.23;;;;;;;;;;6215199;23;20419;-94
2024/04/02 05:41:54;;;;;;;3.78;1.40;;;;;;;;;;6215507;23;20180;-93
2024/04/02 05:44:19;;;;;;;5.60;1.70;;;;;;;;;;6189582;23;20442;-93
2024/04/02 05:46:45;;;;;;;7.05;1.50;;;;;;;;;;6215358;23;19993;-93
2024/04/02 05:49:10;;;;;;;2.87;1.67;;;;;;;;;;6213457;23;20445;-93
2024/04/02 05:51:35;;;;;;;2.38;1.50;;;;;;;;;;6213518;23;20725;-93
2024/04/02 05:54:00;;;;;;;3.50;1.60;;;;;;;;;;6215077;23;20343;-93
2024/04/02 05:56:25;;;;;;;3.15;1.73;;;;;;;;;;6215498;23;20649;-94
2024/04/02 05:58:51;;;;;;;3.05;1.98;;;;;;;;;;6215554;23;20434;-93
2024/04/02 06:01:16;;;;;;;6.18;3.13;;;;;;;;;;6213270;23;20059;-94
2024/04/02 06:03:41;;;;;;;4.38;1.63;;;;;;;;;;6214836;23;19999;-93
2024/04/02 06:06:07;;;;;;;4.05;2.35;;;;;;;;;;6213552;23;20004;-93
2024/04/02 06:08:32;;;;;;;3.70;1.85;;;;;;;;;;6214667;23;20003;-93
2024/04/02 06:10:57;;;;;;;8.27;2.70;;;;;;;;;;6213543;23;20007;-94
2024/04/02 06:13:22;;;;;;;8.88;2.15;;;;;;;;;;6213660;23;20254;-94
2024/04/02 06:15:48;;;;;;;5.38;2.05;;;;;;;;;;6213773;23;20080;-93
2024/04/02 06:18:13;;;;;;;4.32;1.60;;;;;;;;;;6188803;23;20028;-94
2024/04/02 06:20:38;;;;;;;3.97;1.80;;;;;;;;;;6213700;23;20011;-94
2024/04/02 06:23:03;;;;;;;7.57;1.85;;;;;;;;;;6213658;23;20039;-94
2024/04/02 06:25:29;;;;;;;10.85;2.22;;;;;;;;;;6213977;23;20000;-95
2024/04/02 06:27:54;;;;;;;2.63;1.57;;;;;;;;;;6214144;23;19993;-94
2024/04/02 06:30:19;;;;;;;6.93;1.60;;;;;;;;;;6188850;23;20263;-95
2024/04/02 06:32:44;;;;;;;4.35;1.45;;;;;;;;;;6213337;23;20345;-94
2024/04/02 06:35:10;;;;;;;3.90;1.63;;;;;;;;;;6214481;23;20443;-94
2024/04/02 06:37:35;;;;;;;2.60;1.45;;;;;;;;;;6213238;23;20700;-93
2024/04/02 06:40:01;;;;;;;7.93;1.67;;;;;;;;;;6214000;23;20080;-96
2024/04/02 06:42:26;;;;;;;4.63;1.70;;;;;;;;;;6213680;23;20231;-94
2024/04/02 06:44:51;;;;;;;6.47;1.70;;;;;;;;;;6213578;23;20447;-93
2024/04/02 06:47:16;;;;;;;3.28;1.73;;;;;;;;;;6213419;23;20229;-93
2024/04/02 06:49:42;;;;;;;4.03;1.70;;;;;;;;;;6213589;23;20051;-93
2024/04/02 06:52:07;;;;;;;3.85;1.60;;;;;;;;;;6213225;23;20332;-94
2024/04/02 06:54:32;;;;;;;3.95;1.00;;;;;;;;;;6213474;23;20000;-95
2024/04/02 06:56:57;;;;;;;4.93;1.30;;;;;;;;;;6213137;23;20354;-94
2024/04/02 06:59:22;;;;;;;5.43;1.50;;;;;;;;;;6213554;23;20676;-94
2024/04/02 07:01:48;;;;;;;2.95;1.42;;;;;;;;;;6213549;23;20261;-94
2024/04/02 07:04:13;;;;;;;8.63;1.70;;;;;;;;;;6212977;23;20020;-94
2024/04/02 07:06:38;;;;;;;3.17;1.13;;;;;;;;;;6214748;23;20001;-93
2024/04/02 07:09:04;;;;;;;2.37;0.73;;;;;;;;;;6188070;23;20332;-94
2024/04/02 07:11:29;;;;;;;2.63;1.30;;;;;;;;;;6213651;23;20700;-93
2024/04/02 07:13:54;;;;;;;4.60;1.00;;;;;;;;;;6220321;23;20427;-92
2024/04/02 07:16:19;;;;;;;7.77;1.77;;;;;;;;;;6212826;23;19997;-94
2024/04/02 07:18:45;;;;;;;2.60;1.30;;;;;;;;;;6214125;23;20222;-95
2024/04/02 07:23:45;;;;;;;5.25;0.98;;;;;;;;;;6210632;23;20020;-96
2024/04/02 07:26:10;;;;;;;4.78;1.27;;;;;;;;;;6197827;23;20004;-93
2024/04/02 07:28:36;;;;;;;4.53;0.93;;;;;;;;;;6217022;23;20087;-93
2024/04/02 07:31:01;;;;;;;3.83;0.90;;;;;;;;;;6219407;23;20218;-93
2024/04/02 07:33:26;;;;;;;4.00;1.58;;;;;;;;;;6214770;23;20250;-92
2024/04/02 07:35:57;;;;;;;3.38;0.98;;;;;;;;;;6216564;23;20004;-94
2024/04/02 07:38:22;;;;;;;6.40;0.88;;;;;;;;;;6228338;23;20001;-96
2024/04/02 07:46:13;;;;;;;3.50;0.80;;;;;;;;;;6158171;23;20056;-94
2024/04/02 07:48:39;;;;;;;5.90;1.00;;;;;;;;;;6156999;23;19997;-94
2024/04/02 07:51:08;;;;;;;4.17;0.80;;;;;;;;;;6156700;23;20004;-94
2024/04/02 07:53:33;;;;;;;3.47;0.80;;;;;;;;;;6156699;23;20234;-93
2024/04/02 07:55:58;;;;;;;4.87;1.00;;;;;;;;;;6129247;23;20001;-93
2024/04/02 07:58:23;;;;;;;3.90;0.87;;;;;;;;;;6129799;23;20330;-92
2024/04/02 08:00:48;;;;;;;7.53;1.70;;;;;;;;;;6155945;23;20322;-92
2024/04/02 08:03:13;;;;;;;2.43;1.17;;;;;;;;;;6129916;23;20599;-93
2024/04/02 08:05:40;;;;;;;4.83;1.00;;;;;;;;;;6155554;23;20224;-93
2024/04/02 08:08:06;;;;;;;4.03;0.98;;;;;;;;;;6156021;23;20224;-94
2024/04/02 08:10:31;;;;;;;4.20;1.27;;;;;;;;;;6129754;23;20005;-93
2024/04/02 08:12:56;;;;;;;4.78;1.27;;;;;;;;;;6130006;23;20017;-94
2024/04/02 08:15:22;;;;;;;4.65;1.25;;;;;;;;;;6130178;23;20025;-92
2024/04/02 08:17:47;;;;;;;12.40;1.90;;;;;;;;;;6129771;23;20306;-93
2024/04/02 08:20:12;;;;;;;4.20;1.80;;;;;;;;;;6129714;23;20575;-93
2024/04/02 08:22:37;;;;;;;6.60;1.80;;;;;;;;;;6130059;23;20076;-93
2024/04/02 08:25:03;;;;;;;6.28;1.10;;;;;;;;;;6129911;23;20246;-93
2024/04/02 08:27:28;;;;;;;8.82;1.00;;;;;;;;;;6129802;23;19997;-93
2024/04/02 08:29:53;;;;;;;4.17;0.60;;;;;;;;;;6155640;23;20424;-93
2024/04/02 08:32:19;;;;;;;3.07;0.73;;;;;;;;;;6128722;23;20714;-93
2024/04/02 08:34:44;;;;;;;5.22;0.60;;;;;;;;;;6154896;23;20285;-92
2024/04/02 08:37:10;;;;;;;5.40;0.80;;;;;;;;;;6154950;23;20473;-93
2024/04/02 08:39:35;;;;;;;7.90;1.83;;;;;;;;;;6155257;23;20299;-93
2024/04/02 08:42:02;;;;;;;5.20;2.15;;;;;;;;;;6155148;23;20255;-93
2024/04/02 08:44:31;;;;;;;4.40;0.82;;;;;;;;;;6129333;23;20002;-93
2024/04/02 08:46:57;;;;;;;2.67;0.70;;;;;;;;;;6129084;23;20306;-93
2024/04/02 08:49:22;;;;;;;3.70;0.60;;;;;;;;;;6129166;23;20088;-94
2024/04/02 08:51:48;;;;;;;5.30;0.85;;;;;;;;;;6129592;23;20006;-93
2024/04/02 08:54:13;;;;;;;6.75;0.52;;;;;;;;;;6129696;23;20009;-93
2024/04/02 08:56:39;;;;;;;7.23;0.83;;;;;;;;;;6129548;23;20001;-92
2024/04/02 08:59:04;;;;;;;3.63;0.50;;;;;;;;;;6128900;23;20518;-91
2024/04/02 09:01:30;;;;;;;5.47;0.60;;;;;;;;;;6154947;23;20409;-91
2024/04/02 09:03:57;;;;;;;4.68;0.88;;;;;;;;;;6155153;23;20015;-91
2024/04/02 09:06:22;;;;;;;5.00;0.70;;;;;;;;;;6154750;23;20072;-92
2024/04/02 09:08:48;;;;;;;8.40;1.27;;;;;;;;;;6129123;23;20025;-91
2024/04/02 09:11:16;;;;;;;5.60;0.83;;;;;;;;;;6128708;23;20337;-91
2024/04/02 09:13:41;;;;;;;6.35;0.77;;;;;;;;;;6155057;23;20247;-90
2024/04/02 09:16:07;;;;;;;3.13;0.43;;;;;;;;;;6128691;23;19998;-92
2024/04/02 09:18:35;;;;;;;4.13;0.60;;;;;;;;;;6129397;23;20108;-91
2024/04/02 09:21:01;;;;;;;1.88;0.50;;;;;;;;;;6155030;23;20443;-90
2024/04/02 09:23:26;;;;;;;2.97;0.55;;;;;;;;;;6128824;23;19998;-90
2024/04/02 09:25:52;;;;;;;2.53;0.28;;;;;;;;;;6154733;23;20442;-90
2024/04/02 09:28:17;;;;;;;3.83;0.60;;;;;;;;;;6128687;23;20001;-90
2024/04/02 09:30:42;;;;;;;1.47;0.60;;;;;;;;;;6154355;23;20224;-90
2024/04/02 09:33:09;;;;;;;3.37;0.67;;;;;;;;;;6154816;23;20713;-91
2024/04/02 09:35:49;;;;;;;1.27;0.50;;;;;;;;;;6154815;23;20243;-91
2024/04/02 09:38:16;;;;;;;3.33;0.65;;;;;;;;;;6128603;23;19998;-91
2024/04/02 09:40:42;;;;;;;3.13;0.65;;;;;;;;;;6155005;23;20290;-90
2024/04/02 09:43:08;;;;;;;6.55;0.50;;;;;;;;;;6154336;23;20000;-91
2024/04/02 09:45:33;;;;;;;5.72;0.60;;;;;;;;;;6154631;23;20025;-91
2024/04/02 09:47:59;;;;;;;3.15;0.95;;;;;;;;;;6128455;23;20004;-91
2024/04/02 09:50:24;;;;;;;3.78;1.00;;;;;;;;;;6154467;23;19998;-91
2024/04/02 09:52:52;;;;;;;1.77;0.40;;;;;;;;;;6128376;23;20017;-91
2024/04/02 09:55:18;;;;;;;8.00;1.05;;;;;;;;;;6128494;23;20005;-91
2024/04/02 09:57:43;;;;;;;3.45;0.80;;;;;;;;;;6128610;23;19997;-93
2024/04/02 10:00:09;;;;;;;4.47;1.55;;;;;;;;;;6154756;23;20290;-92
2024/04/02 10:02:35;;;;;;;5.13;0.98;;;;;;;;;;6154609;23;20006;-92
2024/04/02 10:05:00;;;;;;;4.32;1.02;;;;;;;;;;6127842;23;20443;-93
2024/04/02 10:07:32;;;;;;;4.85;0.75;;;;;;;;;;6128503;23;20012;-92
2024/04/02 10:09:58;;;;;;;5.03;0.82;;;;;;;;;;6155084;23;19993;-93
2024/04/02 10:12:26;;;;;;;5.38;0.80;;;;;;;;;;6156232;23;19997;-95
2024/04/02 10:14:52;;;;;;;5.93;0.50;;;;;;;;;;6130413;23;20001;-94
2024/04/02 10:17:20;;;;;;;7.40;0.63;;;;;;;;;;6133072;23;20017;-96
2024/04/02 10:19:50;;;;;;;3.35;0.82;;;;;;;;;;6132468;23;20043;-96
2024/04/02 10:22:38;;;;;;;3.92;0.70;;;;;;;;;;6130303;23;20001;-94
2024/04/02 10:25:10;;;;;;;4.70;1.48;;;;;;;;;;6155047;23;19994;-96
2024/04/02 10:27:36;;;;;;;5.82;0.50;;;;;;;;;;6130175;23;20029;-95
2024/04/02 10:30:02;;;;;;;6.63;0.52;;;;;;;;;;6130718;23;19994;-92
2024/04/02 10:32:30;;;;;;;4.00;0.98;;;;;;;;;;6129699;23;20480;-93
2024/04/02 10:34:55;;;;;;;3.58;0.70;;;;;;;;;;6129466;23;20012;-95
2024/04/02 10:37:23;;;;;;;4.15;0.60;;;;;;;;;;6132309;23;20001;-96
2024/04/02 10:39:49;;;;;;;2.80;0.52;;;;;;;;;;6133780;23;20087;-94
2024/04/02 10:42:14;;;;;;;2.60;0.52;;;;;;;;;;6156060;23;20013;-94
2024/04/02 10:44:39;;;;;;;4.97;0.85;;;;;;;;;;6146533;23;20009;-95
2024/04/02 10:47:05;;;;;;;6.22;1.65;;;;;;;;;;6185273;23;20012;-94
2024/04/02 10:49:30;;;;;;;8.10;0.65;;;;;;;;;;6183461;23;20005;-93
2024/04/02 10:52:02;;;;;;;5.43;0.97;;;;;;;;;;6183268;23;20004;-93
2024/04/02 10:54:28;;;;;;;4.68;0.68;;;;;;;;;;6182757;23;20282;-94
2024/04/02 10:56:54;;;;;;;4.90;0.88;;;;;;;;;;6182248;23;20305;-93
2024/04/02 10:59:19;;;;;;;5.90;0.80;;;;;;;;;;6183942;23;20088;-93
2024/04/02 11:01:45;;;;;;;6.30;0.85;;;;;;;;;;6185372;23;20071;-94
2024/04/02 11:04:10;;;;;;;2.13;0.40;;;;;;;;;;6184118;23;19997;-94
2024/04/02 11:06:35;;;;;;;3.92;0.95;;;;;;;;;;6184022;23;19998;-90
2024/04/02 11:09:03;;;;;;;2.67;0.50;;;;;;;;;;6185025;23;20317;-92
2024/04/02 11:11:28;;;;;;;2.72;0.57;;;;;;;;;;6183340;23;20239;-92
2024/04/02 11:14:03;;;;;;;5.82;1.10;;;;;;;;;;6185894;23;20379;-92
2024/04/02 11:16:28;;;;;;;5.95;0.73;;;;;;;;;;6183808;23;20367;-92
2024/04/02 11:18:56;;;;;;;3.53;0.52;;;;;;;;;;6184096;23;20032;-92
2024/04/02 11:21:21;;;;;;;2.20;0.63;;;;;;;;;;6185377;23;20048;-92
2024/04/02 11:26:30;;;;;;;6.93;0.70;;;;;;;;;;6184970;23;20008;-92
2024/04/02 11:29:07;;;;;;;5.32;0.77;;;;;;;;;;6185547;23;20319;-92
2024/04/02 11:31:32;;;;;;;3.17;1.45;;;;;;;;;;6185586;23;20434;-92
2024/04/02 11:33:57;;;;;;;7.00;0.53;;;;;;;;;;6183324;23;20001;-93
2024/04/02 11:36:23;;;;;;;8.15;0.73;;;;;;;;;;6183514;23;20234;-93
2024/04/02 11:38:48;;;;;;;3.40;0.60;;;;;;;;;;6183413;23;19985;-93
2024/04/02 11:41:14;;;;;;;3.50;0.93;;;;;;;;;;6183028;23;20271;-93
2024/04/02 11:43:39;;;;;;;7.93;0.98;;;;;;;;;;6182818;23;20713;-93
2024/04/02 11:46:05;;;;;;;3.08;0.45;;;;;;;;;;6182667;23;20009;-94
2024/04/02 11:48:30;;;;;;;3.95;0.93;;;;;;;;;;6184783;23;20005;-93
2024/04/02 11:50:55;;;;;;;3.30;0.70;;;;;;;;;;6183621;23;19997;-93
2024/04/02 11:53:21;;;;;;;3.40;0.60;;;;;;;;;;6184556;23;20258;-94
2024/04/02 11:55:49;;;;;;;2.67;0.60;;;;;;;;;;6183339;23;20677;-93
2024/04/02 12:01:08;;;;;;;1.63;0.45;;;;;;;;;;6189638;23;20031;-92
2024/04/02 12:03:33;;;;;;;3.83;0.50;;;;;;;;;;6183262;23;19997;-93
2024/04/02 12:05:58;;;;;;;5.10;0.70;;;;;;;;;;6183790;23;20223;-95
2024/04/02 12:08:24;;;;;;;3.50;0.70;;;;;;;;;;6185466;23;20227;-92
2024/04/02 12:10:49;;;;;;;3.60;0.55;;;;;;;;;;6186456;23;20215;-92
2024/04/02 12:13:15;;;;;;;4.50;0.30;;;;;;;;;;6185068;23;20009;-93
2024/04/02 12:15:40;;;;;;;2.92;0.50;;;;;;;;;;6187554;23;20059;-94
2024/04/02 12:18:06;;;;;;;3.58;0.70;;;;;;;;;;6185649;23;20056;-91
2024/04/02 12:20:31;;;;;;;4.57;0.60;;;;;;;;;;6185814;23;20039;-92
2024/04/02 12:22:56;;;;;;;1.83;0.57;;;;;;;;;;6186989;23;20416;-93
2024/04/02 12:25:22;;;;;;;4.13;0.60;;;;;;;;;;6184241;23;20693;-91
2024/04/02 12:27:47;;;;;;;2.45;0.50;;;;;;;;;;6183963;23;20067;-91
2024/04/02 12:30:13;;;;;;;5.05;0.68;;;;;;;;;;6183768;23;19993;-93
2024/04/02 12:32:40;;;;;;;1.83;0.65;;;;;;;;;;6185810;23;20009;-93
2024/04/02 12:35:05;;;;;;;7.90;0.95;;;;;;;;;;6186036;23;20016;-93
2024/04/02 12:37:30;;;;;;;3.63;0.68;;;;;;;;;;6185207;23;20001;-95
2024/04/02 12:39:56;;;;;;;4.13;0.57;;;;;;;;;;6184609;23;20169;-94
2024/04/02 12:42:21;;;;;;;2.38;0.30;;;;;;;;;;6183492;23;20324;-91
2024/04/02 12:44:48;;;;;;;4.93;0.68;;;;;;;;;;6174213;23;20002;-92
2024/04/02 12:47:16;;;;;;;4.47;0.40;;;;;;;;;;6131098;23;20097;-95
2024/04/02 12:49:42;;;;;;;4.95;0.60;;;;;;;;;;6129852;23;19994;-92
2024/04/02 12:52:08;;;;;;;4.63;1.05;;;;;;;;;;6130007;23;20009;-95
2024/04/02 12:54:33;;;;;;;4.80;0.70;;;;;;;;;;6129800;23;20020;-93
2024/04/02 12:56:58;;;;;;;5.50;1.00;;;;;;;;;;6128965;23;20006;-91
2024/04/02 12:59:24;;;;;;;4.22;0.60;;;;;;;;;;6154335;23;20246;-92
2024/04/02 13:01:49;;;;;;;7.88;0.82;;;;;;;;;;6129021;23;20005;-84
2024/04/02 13:04:16;;;;;;;3.50;0.65;;;;;;;;;;6156634;23;20016;-96
2024/04/02 13:06:41;;;;;;;6.85;0.90;;;;;;;;;;6131198;23;20002;-92
2024/04/02 13:09:06;;;;;;;7.27;1.03;;;;;;;;;;6129936;23;20452;-92
2024/04/02 13:11:32;;;;;;;2.85;0.60;;;;;;;;;;6157751;23;20659;-95
2024/04/02 13:13:58;;;;;;;8.48;1.45;;;;;;;;;;6129758;23;20088;-93
2024/04/02 13:16:26;;;;;;;2.00;0.82;;;;;;;;;;6153821;23;20376;-91
2024/04/02 13:18:51;;;;;;;4.03;1.10;;;;;;;;;;6125407;23;20093;-90
2024/04/02 13:21:18;;;;;;;7.55;1.13;;;;;;;;;;6149954;23;20511;-92
2024/04/02 13:23:44;;;;;;;8.43;1.23;;;;;;;;;;6128371;23;20092;-92
2024/04/02 13:26:09;;;;;;;8.35;0.68;;;;;;;;;;6187158;22;20013;-94
2024/04/02 13:28:35;;;;;;;9.70;1.25;;;;;;;;;;6213280;23;20061;-93
2024/04/02 13:31:07;;;;;;;6.10;0.77;;;;;;;;;;6213946;23;20060;-91
2024/04/02 13:33:32;;;;;;;;;;;;;;;;;;6212971;23;20008;-92
2024/04/02 13:36:04;;;;;;;4.07;0.90;;;;;;;;;;6214699;23;19977;-93
2024/04/02 13:38:29;;;;;;;5.07;1.08;;;;;;;;;;6210969;23;20040;-92
2024/04/02 13:40:55;;;;;;;6.37;0.93;;;;;;;;;;6212461;23;20308;-91
2024/04/02 13:43:20;;;;;;;7.80;1.50;;;;;;;;;;6212124;23;20703;-90
2024/04/02 13:45:53;;;;;;;7.75;1.40;;;;;;;;;;6213031;23;20214;-94
2024/04/02 13:48:18;;;;;;;12.63;2.40;;;;;;;;;;6213756;23;20000;-96
2024/04/02 13:50:44;;;;;;;10.53;2.07;;;;;;;;;;6238353;23;20484;-91
2024/04/02 13:53:12;;;;;;;8.87;2.00;;;;;;;;;;6241153;23;20780;-96
2024/04/02 13:55:38;;;;;;;15.15;2.13;;;;;;;;;;6219905;23;20851;-94
2024/04/02 13:58:03;;;;;;;17.30;3.27;;;;;;;;;;6238754;22;20044;-95
2024/04/02 14:00:29;;;;;;;17.92;3.05;;;;;;;;;;6237537;23;20233;-92
2024/04/02 14:02:54;;;;;;;22.17;3.00;;;;;;;;;;6217389;23;20431;-92
2024/04/02 14:05:20;;;;;;;16.07;3.67;;;;;;;;;;6214573;23;20007;-93
2024/04/02 14:07:47;;;;;;;13.80;2.03;;;;;;;;;;6238998;22;20241;-93
2024/04/02 14:10:12;;;;;;;11.27;2.08;;;;;;;;;;6240051;23;20009;-95
2024/04/02 14:12:37;;;;;;;10.97;2.17;;;;;;;;;;6237827;23;20009;-93
2024/04/02 14:15:03;;;;;;;17.93;2.17;;;;;;;;;;6236948;23;20226;-94
2024/04/02 14:17:28;;;;;;;17.65;3.42;;;;;;;;;;6213293;23;20223;-91
2024/04/02 14:19:53;;;;;;;20.20;2.88;;;;;;;;;;6214087;23;19997;-91
2024/04/02 14:22:19;;;;;;;24.63;3.23;;;;;;;;;;6237578;23;20002;-95
2024/04/02 14:24:44;;;;;;;10.93;2.33;;;;;;;;;;6237089;23;20218;-91
2024/04/02 14:27:10;;;;;;;23.90;2.88;;;;;;;;;;6213270;23;20226;-90
2024/04/02 14:29:35;;;;;;;12.93;2.35;;;;;;;;;;6215132;23;20019;-93
2024/04/02 14:32:00;;;;;;;17.37;3.47;;;;;;;;;;6237899;23;20057;-93
2024/04/02 14:34:25;;;;;;;21.98;3.00;;;;;;;;;;6239173;23;20231;-90
2024/04/02 14:36:51;;;;;;;13.77;2.05;;;;;;;;;;6216721;23;20484;-92
2024/04/02 14:39:16;;;;;;;20.15;2.65;;;;;;;;;;6247730;23;19988;-94
2024/04/02 14:41:42;;;;;;;16.83;2.40;;;;;;;;;;6242097;23;20058;-95
2024/04/02 14:44:07;;;;;;;15.68;2.47;;;;;;;;;;6234314;23;20016;-92
2024/04/02 14:46:33;;;;;;;10.30;2.05;;;;;;;;;;6210331;23;20005;-91
2024/04/02 14:48:58;;;;;;;27.58;3.88;;;;;;;;;;6214973;23;20048;-94